Time;durP1;ratioP1;P1;durP2;ratioP2;P2;SDS_P1;SDS_P2;PMS_P1;PMS_P2;Temp;Humidity;BMP_temperature;BMP_pressure;BME280_temperature;BME280_humidity;BME280_pressure;Samples;Min_cycle;Max_cycle;Signal;HPM_P1;HPM_P2
2022/06/24 00:00:15;;;;;;;3.50;1.87;;;;;;;23.30;37.24;99440.03;4492079;31;34866;-66
2022/06/24 00:02:48;;;;;;;4.22;2.20;;;;;;;23.12;37.51;99439.75;4496072;31;33428;-64
2022/06/24 00:05:16;;;;;;;4.18;2.15;;;;;;;23.14;37.85;99437.66;4495672;31;34974;-62
2022/06/24 00:07:45;;;;;;;6.87;2.30;;;;;;;23.22;37.70;99438.31;4495247;31;34926;-64
2022/06/24 00:10:19;;;;;;;5.93;2.40;;;;;;;22.88;38.42;99441.91;4497158;31;33127;-63
2022/06/24 00:12:49;;;;;;;4.80;2.33;;;;;;;23.01;38.28;99446.63;4497226;31;33732;-62
2022/06/24 00:15:28;;;;;;;6.35;2.58;;;;;;;23.07;38.20;99436.78;4492439;31;34866;-66
2022/06/24 00:17:56;;;;;;;4.85;2.53;;;;;;;22.91;38.65;99443.38;4497044;31;33609;-66
2022/06/24 00:20:24;;;;;;;5.95;2.50;;;;;;;22.95;38.77;99442.84;4497156;31;33323;-64
2022/06/24 00:22:52;;;;;;;6.82;2.60;;;;;;;22.90;38.99;99448.00;4499245;31;32588;-65
2022/06/24 00:25:22;;;;;;;5.18;2.50;;;;;;;23.07;38.53;99442.25;4494259;31;34369;-63
2022/06/24 00:28:05;;;;;;;4.35;2.30;;;;;;;23.13;38.23;99450.47;4497228;31;33725;-65
2022/06/24 00:30:42;;;;;;;5.62;2.53;;;;;;;23.20;38.39;99451.31;4496175;31;32078;-63
2022/06/24 00:33:19;;;;;;;5.70;2.55;;;;;;;23.16;38.70;99452.78;4494306;31;33901;-64
2022/06/24 00:35:53;;;;;;;6.85;2.70;;;;;;;22.98;38.11;99458.78;4496737;31;33933;-63
2022/06/24 00:38:31;;;;;;;5.37;2.40;;;;;;;23.06;38.17;99451.50;4490659;31;34966;-63
2022/06/24 00:41:04;;;;;;;5.90;2.62;;;;;;;23.07;37.16;99445.81;4495001;31;33777;-63
2022/06/24 00:43:37;;;;;;;8.82;2.75;;;;;;;23.17;36.74;99443.53;4495187;31;33781;-63
2022/06/24 00:46:11;;;;;;;5.18;2.65;;;;;;;23.25;36.95;99446.09;4493963;31;35118;-64
2022/06/24 00:48:43;;;;;;;6.82;2.53;;;;;;;23.33;36.60;99447.81;4497999;31;33841;-66
2022/06/24 00:51:10;;;;;;;5.70;2.80;;;;;;;23.38;36.29;99447.22;4497549;31;32890;-63
2022/06/24 00:53:40;;;;;;;7.05;2.85;;;;;;;23.42;35.88;99445.75;4495336;31;33708;-64
2022/06/24 00:56:10;;;;;;;5.22;2.80;;;;;;;23.44;35.91;99444.50;4495570;31;35786;-66
2022/06/24 00:58:39;;;;;;;6.30;2.60;;;;;;;23.65;36.05;99446.22;4488825;31;32336;-65
2022/06/24 01:01:07;;;;;;;4.30;2.50;;;;;;;23.54;35.39;99437.81;4491430;31;32877;-65
2022/06/24 01:03:37;;;;;;;4.85;2.42;;;;;;;23.73;35.58;99431.56;4497541;31;32569;-63
2022/06/24 01:06:05;;;;;;;5.03;2.62;;;;;;;23.77;35.58;99427.38;4487394;31;33848;-63
2022/06/24 01:08:33;;;;;;;5.28;2.40;;;;;;;23.75;35.41;99423.16;4498585;31;33522;-62
2022/06/24 01:11:01;;;;;;;8.23;3.08;;;;;;;23.76;35.50;99419.41;4499512;31;33071;-63
2022/06/24 01:13:29;;;;;;;4.80;2.67;;;;;;;23.65;34.82;99429.00;4487683;31;33457;-67
2022/06/24 01:15:57;;;;;;;4.65;2.50;;;;;;;23.67;34.38;99426.91;4496989;31;32610;-63
2022/06/24 01:18:24;;;;;;;4.47;2.33;;;;;;;23.89;34.29;99431.16;4496313;31;32660;-63
2022/06/24 01:20:52;;;;;;;7.93;2.72;;;;;;;24.00;34.19;99435.16;4500585;31;33469;-63
2022/06/24 01:23:24;;;;;;;4.82;2.35;;;;;;;23.93;34.11;99431.59;4496003;31;34939;-64
2022/06/24 01:25:52;;;;;;;5.57;3.05;;;;;;;23.95;34.21;99429.50;4500138;31;31696;-62
2022/06/24 01:28:20;;;;;;;6.90;2.87;;;;;;;24.00;34.25;99423.41;4499737;31;33791;-63
2022/06/24 01:30:47;;;;;;;6.37;2.30;;;;;;;23.98;34.58;99428.22;4497217;31;33207;-64
2022/06/24 01:33:15;;;;;;;5.90;2.75;;;;;;;24.01;34.86;99425.91;4498767;31;32250;-64
2022/06/24 01:35:42;;;;;;;8.07;3.40;;;;;;;24.04;35.24;99419.19;4497920;31;34893;-67
2022/06/24 01:38:10;;;;;;;5.15;2.83;;;;;;;24.07;35.60;99416.88;4499396;31;34636;-67
2022/06/24 01:40:38;;;;;;;5.15;2.40;;;;;;;24.09;35.92;99422.97;4500779;31;34288;-63
2022/06/24 01:43:05;;;;;;;7.37;3.00;;;;;;;24.06;35.82;99423.41;4499784;31;32326;-65
2022/06/24 01:45:33;;;;;;;5.90;3.03;;;;;;;24.01;35.29;99414.97;4498912;31;33960;-62
2022/06/24 01:48:00;;;;;;;4.78;2.25;;;;;;;24.01;34.88;99414.97;4499783;31;33734;-63
2022/06/24 01:50:28;;;;;;;4.70;2.60;;;;;;;23.99;35.53;99408.88;4499359;31;32015;-63
2022/06/24 01:52:55;;;;;;;5.87;2.92;;;;;;;23.80;35.80;99410.56;4499721;31;33963;-62
2022/06/24 01:55:23;;;;;;;5.97;2.97;;;;;;;23.91;35.39;99409.91;4498739;31;33847;-64
2022/06/24 01:57:51;;;;;;;5.97;2.90;;;;;;;23.78;36.25;99409.91;4498654;31;34525;-65
2022/06/24 02:00:18;;;;;;;4.50;2.58;;;;;;;23.84;36.13;99420.00;4497710;31;34653;-66
2022/06/24 02:02:46;;;;;;;5.70;2.92;;;;;;;23.62;36.33;99407.53;4499849;31;33763;-63
2022/06/24 02:05:14;;;;;;;6.70;2.83;;;;;;;23.66;36.49;99409.69;4500571;31;34939;-63
2022/06/24 02:07:41;;;;;;;5.85;2.42;;;;;;;23.64;36.85;99411.75;4486265;31;34839;-64
2022/06/24 02:15:42;;;;;;;5.30;2.72;;;;;;;23.45;36.06;99418.03;4489590;31;34893;-65
2022/06/24 02:18:09;;;;;;;6.70;2.58;;;;;;;23.42;35.95;99419.28;4500034;31;34867;-62
2022/06/24 02:20:37;;;;;;;5.40;2.50;;;;;;;23.54;35.43;99410.50;4499528;31;33371;-61
2022/06/24 02:23:11;;;;;;;7.20;2.92;;;;;;;23.13;35.90;99414.13;4498231;31;34690;-63
2022/06/24 02:25:39;;;;;;;5.57;2.78;;;;;;;23.28;35.53;99412.09;4499673;31;34374;-64
2022/06/24 02:28:06;;;;;;;5.93;2.65;;;;;;;23.24;35.83;99410.81;4500373;31;33509;-65
2022/06/24 02:30:34;;;;;;;8.45;2.75;;;;;;;23.37;35.86;99410.00;4500892;31;34263;-62
2022/06/24 02:33:02;;;;;;;4.75;2.75;;;;;;;23.31;35.67;99408.13;4499413;31;34816;-62
2022/06/24 02:35:29;;;;;;;6.95;2.67;;;;;;;23.50;35.34;99415.53;4494857;31;34114;-63
2022/06/24 02:37:57;;;;;;;5.10;2.58;;;;;;;23.63;34.85;99415.56;4499480;31;34537;-65
2022/06/24 02:43:14;;;;;;;5.12;2.70;;;;;;;23.17;36.33;99415.41;4497677;31;33709;-62
2022/06/24 02:45:47;;;;;;;5.15;2.37;;;;;;;23.39;36.42;99427.88;4497265;31;35186;-62
2022/06/24 02:48:16;;;;;;;6.87;2.70;;;;;;;23.28;36.32;99420.28;4497962;31;33489;-62
2022/06/24 02:50:45;;;;;;;6.87;2.62;;;;;;;23.39;35.90;99416.13;4497370;31;33376;-62
2022/06/24 02:53:16;;;;;;;5.35;2.10;;;;;;;23.40;35.95;99418.66;4498089;31;34952;-64
2022/06/24 02:55:47;;;;;;;6.07;2.50;;;;;;;23.41;36.08;99420.31;4498789;31;33913;-63
2022/06/24 02:58:15;;;;;;;5.43;2.75;;;;;;;23.34;35.94;99422.19;4493604;31;34456;-64
2022/06/24 03:00:43;;;;;;;6.72;2.60;;;;;;;23.33;36.25;99422.41;4494484;31;34289;-65
2022/06/24 03:03:14;;;;;;;5.43;2.45;;;;;;;23.41;35.65;99423.06;4488572;31;32822;-62
2022/06/24 03:05:42;;;;;;;6.12;2.55;;;;;;;23.47;35.29;99422.25;4495176;31;35353;-64
2022/06/24 03:08:12;;;;;;;6.75;2.37;;;;;;;23.41;35.59;99423.06;4496979;31;33863;-63
2022/06/24 03:10:40;;;;;;;4.90;2.55;;;;;;;23.43;35.47;99431.03;4489857;31;33206;-65
2022/06/24 03:13:08;;;;;;;4.47;2.30;;;;;;;23.54;35.43;99429.59;4496567;31;34692;-64
2022/06/24 03:15:36;;;;;;;4.87;2.40;;;;;;;23.49;35.59;99433.78;4498072;31;33739;-63
2022/06/24 03:18:04;;;;;;;6.75;2.53;;;;;;;23.59;35.95;99422.44;4498170;31;34460;-64
2022/06/24 03:20:32;;;;;;;5.18;2.95;;;;;;;23.65;35.52;99429.81;4495824;31;34406;-65
2022/06/24 03:22:59;;;;;;;8.27;2.58;;;;;;;23.55;36.03;99434.00;4498925;31;33517;-67
2022/06/24 03:25:27;;;;;;;6.35;2.70;;;;;;;23.66;35.26;99431.53;4498200;31;34390;-63
2022/06/24 03:27:54;;;;;;;4.93;2.50;;;;;;;23.57;35.23;99431.94;4497626;31;34931;-65
2022/06/24 03:30:22;;;;;;;6.10;2.42;;;;;;;23.62;35.46;99435.69;4496225;31;33381;-64
2022/06/24 03:32:50;;;;;;;5.37;2.72;;;;;;;23.75;35.36;99424.00;4496711;31;34678;-67
2022/06/24 03:35:17;;;;;;;6.90;2.35;;;;;;;23.93;35.23;99426.97;4498396;31;34358;-65
2022/06/24 03:37:45;;;;;;;5.80;2.72;;;;;;;23.98;34.87;99420.88;4496526;31;33489;-64
2022/06/24 03:40:13;;;;;;;6.32;2.12;;;;;;;23.94;35.25;99422.34;4492559;31;35158;-63
2022/06/24 03:42:40;;;;;;;5.53;2.40;;;;;;;24.01;35.30;99434.09;4496252;31;34668;-64
2022/06/24 03:45:08;;;;;;;5.32;2.47;;;;;;;24.18;35.30;99435.38;4498492;31;34934;-65
2022/06/24 03:47:36;;;;;;;4.10;2.40;;;;;;;24.40;34.83;99430.53;4495954;31;34566;-66
2022/06/24 03:50:04;;;;;;;6.47;2.60;;;;;;;24.50;34.93;99438.34;4495392;31;34117;-67
2022/06/24 03:52:32;;;;;;;7.55;2.30;;;;;;;24.58;34.75;99434.53;4494990;31;33867;-64
2022/06/24 03:55:00;;;;;;;7.00;2.58;;;;;;;24.78;34.76;99431.75;4498425;31;33830;-65
2022/06/24 03:57:28;;;;;;;4.68;2.30;;;;;;;24.70;34.78;99441.03;4494364;31;34602;-64
2022/06/24 03:59:55;;;;;;;4.45;2.25;;;;;;;24.84;34.58;99439.09;4496448;31;33164;-64
2022/06/24 04:02:23;;;;;;;8.30;2.40;;;;;;;24.83;33.99;99441.00;4496611;31;33754;-64
2022/06/24 04:04:51;;;;;;;6.97;2.50;;;;;;;24.91;34.52;99436.34;4491631;31;34508;-64
2022/06/24 04:07:19;;;;;;;4.57;2.53;;;;;;;24.72;35.23;99447.16;4496940;31;34524;-64
2022/06/24 04:09:46;;;;;;;6.25;2.40;;;;;;;24.78;34.56;99440.81;4494460;31;33722;-66
2022/06/24 04:12:14;;;;;;;4.18;2.30;;;;;;;25.06;34.65;99445.97;4498116;31;33723;-64
2022/06/24 04:17:29;;;;;;;5.45;2.55;;;;;;;24.98;34.31;99438.03;4486974;31;32113;-64
2022/06/24 04:19:56;;;;;;;5.18;2.47;;;;;;;25.08;34.67;99448.53;4497632;31;34559;-67
2022/06/24 04:22:23;;;;;;;5.43;2.37;;;;;;;25.34;34.42;99450.34;4491328;31;33605;-67
2022/06/24 04:24:51;;;;;;;4.95;2.12;;;;;;;25.40;34.14;99454.94;4494254;31;34155;-66
2022/06/24 04:27:19;;;;;;;8.35;2.60;;;;;;;25.22;33.62;99444.69;4498682;31;34098;-66
2022/06/24 04:29:46;;;;;;;4.80;2.40;;;;;;;24.83;34.49;99443.75;4496150;31;33679;-67
2022/06/24 04:32:14;;;;;;;5.40;2.20;;;;;;;24.59;34.46;99453.50;4488195;31;33096;-65
2022/06/24 04:34:42;;;;;;;6.32;2.78;;;;;;;24.44;35.08;99446.56;4496528;31;34067;-65
2022/06/24 04:37:09;;;;;;;8.48;2.55;;;;;;;24.73;34.93;99456.19;4485065;31;32485;-66
2022/06/24 04:39:37;;;;;;;6.75;2.40;;;;;;;24.80;35.44;99460.59;4497235;31;33631;-64
2022/06/24 04:42:05;;;;;;;8.23;2.60;;;;;;;24.87;35.36;99455.09;4497982;31;34384;-64
2022/06/24 04:44:33;;;;;;;5.45;2.42;;;;;;;24.51;34.77;99447.41;4495888;31;33867;-65
2022/06/24 04:47:06;;;;;;;6.28;2.28;;;;;;;24.81;34.87;99456.78;4497576;31;34047;-66
2022/06/24 04:49:34;;;;;;;7.75;2.42;;;;;;;24.76;35.08;99451.13;4494112;31;33904;-65
2022/06/24 04:52:02;;;;;;;4.28;2.33;;;;;;;24.77;34.92;99452.81;4490388;31;32317;-65
2022/06/24 04:54:30;;;;;;;6.70;2.30;;;;;;;25.10;34.83;99460.94;4494375;31;35255;-63
2022/06/24 04:56:57;;;;;;;6.45;2.80;;;;;;;25.17;34.05;99452.75;4488933;31;33780;-63
2022/06/24 04:59:26;;;;;;;5.32;2.58;;;;;;;25.14;34.31;99455.06;4495819;31;33065;-63
2022/06/24 05:01:54;;;;;;;6.85;2.72;;;;;;;25.27;34.73;99461.34;4497640;31;33620;-63
2022/06/24 05:04:21;;;;;;;6.43;2.40;;;;;;;25.31;33.51;99457.09;4498099;31;33807;-65
2022/06/24 05:06:49;;;;;;;4.70;2.40;;;;;;;25.39;33.48;99460.63;4500062;31;35054;-66
2022/06/24 05:09:17;;;;;;;3.97;2.33;;;;;;;25.29;33.54;99459.19;4496991;31;33267;-64
2022/06/24 05:11:46;;;;;;;4.87;2.40;;;;;;;25.35;33.65;99448.44;4494234;31;33663;-66
2022/06/24 05:14:13;;;;;;;6.68;2.20;;;;;;;24.44;34.00;99449.31;4489500;31;33924;-65
2022/06/24 05:16:41;;;;;;;7.07;2.50;;;;;;;24.57;34.17;99454.75;4500157;31;32920;-64
2022/06/24 05:19:09;;;;;;;5.85;2.30;;;;;;;24.61;34.29;99450.53;4499387;31;33902;-65
2022/06/24 05:21:37;;;;;;;4.45;2.53;;;;;;;24.37;33.94;99455.59;4498683;31;33425;-63
2022/06/24 05:24:05;;;;;;;7.40;2.30;;;;;;;24.63;34.29;99456.62;4496795;31;35285;-64
2022/06/24 05:26:32;;;;;;;8.82;2.87;;;;;;;24.67;34.41;99451.56;4499062;31;34960;-64
2022/06/24 05:29:00;;;;;;;5.30;2.58;;;;;;;24.30;34.10;99462.97;4491416;31;34465;-64
2022/06/24 05:31:28;;;;;;;5.35;2.50;;;;;;;24.16;34.47;99464.00;4485061;31;33374;-66
2022/06/24 05:33:56;;;;;;;6.82;2.40;;;;;;;24.03;34.98;99469.44;4483573;31;32602;-66
2022/06/24 05:36:23;;;;;;;5.72;2.30;;;;;;;24.00;35.06;99458.94;4491888;31;34275;-66
2022/06/24 05:38:52;;;;;;;6.35;2.70;;;;;;;24.28;35.33;99464.22;4498289;31;33526;-64
2022/06/24 05:41:19;;;;;;;5.68;2.92;;;;;;;24.58;34.38;99464.62;4493258;31;35076;-65
2022/06/24 05:43:47;;;;;;;9.70;2.85;;;;;;;24.62;34.10;99474.09;4484897;31;32396;-64
2022/06/24 05:46:15;;;;;;;5.55;2.70;;;;;;;24.64;33.61;99469.25;4484514;31;32083;-62
2022/06/24 05:48:42;;;;;;;6.20;2.72;;;;;;;24.17;34.63;99480.19;4492150;31;33858;-66
2022/06/24 05:51:15;;;;;;;5.68;2.35;;;;;;;24.59;34.02;99480.84;4491303;31;34457;-62
2022/06/24 05:56:31;;;;;;;4.68;2.20;;;;;;;24.54;33.73;99471.59;4494284;31;33684;-61
2022/06/24 05:58:59;;;;;;;7.18;2.70;;;;;;;23.93;35.10;99491.72;4498948;31;33250;-61
2022/06/24 06:01:27;;;;;;;6.28;2.40;;;;;;;24.60;33.92;99479.78;4494189;31;33855;-63
2022/06/24 06:03:55;;;;;;;4.80;2.08;;;;;;;24.50;34.32;99481.28;4495196;31;35082;-65
2022/06/24 06:06:23;;;;;;;6.50;2.40;;;;;;;24.52;33.47;99480.00;4492060;31;32254;-67
2022/06/24 06:08:51;;;;;;;4.32;2.30;;;;;;;24.71;34.43;99472.81;4488642;31;32267;-62
2022/06/24 06:11:23;;;;;;;7.05;2.75;;;;;;;24.60;34.30;99470.75;4490652;31;34002;-63
2022/06/24 06:13:52;;;;;;;4.40;2.12;;;;;;;24.72;34.42;99477.25;4494700;31;33997;-63
2022/06/24 06:16:22;;;;;;;7.75;2.90;;;;;;;24.56;34.23;99472.22;4495840;31;34081;-63
2022/06/24 06:18:50;;;;;;;6.22;2.83;;;;;;;24.87;33.95;99471.53;4498146;31;33093;-63
2022/06/24 06:21:18;;;;;;;6.75;2.80;;;;;;;25.04;33.58;99463.69;4493137;31;33750;-63
2022/06/24 06:23:46;;;;;;;5.20;2.60;;;;;;;25.38;33.15;99462.53;4499561;31;34011;-65
2022/06/24 06:26:14;;;;;;;6.60;2.20;;;;;;;25.42;32.72;99472.00;4498853;31;34594;-63
2022/06/24 06:28:42;;;;;;;5.47;2.58;;;;;;;25.31;32.98;99469.94;4495172;31;33330;-64
2022/06/24 06:31:10;;;;;;;5.45;2.37;;;;;;;25.34;33.10;99466.78;4490801;31;35010;-65
2022/06/24 06:33:38;;;;;;;7.78;2.17;;;;;;;24.94;33.23;99471.50;4496033;31;35001;-64
2022/06/24 06:36:11;;;;;;;6.25;2.85;;;;;;;25.32;33.70;99466.97;4497958;31;33738;-65
2022/06/24 06:38:39;;;;;;;4.62;2.42;;;;;;;25.44;33.48;99460.84;4492317;31;34369;-63
2022/06/24 06:41:14;;;;;;;5.78;2.03;;;;;;;25.39;32.75;99450.50;4496148;31;33653;-66
2022/06/24 06:43:42;;;;;;;5.97;2.17;;;;;;;25.27;33.06;99455.00;4499546;31;33959;-63
2022/06/24 06:46:10;;;;;;;8.65;2.78;;;;;;;25.44;33.40;99453.44;4497223;31;34308;-63
2022/06/24 06:48:38;;;;;;;6.82;2.50;;;;;;;25.38;33.06;99450.75;4497646;31;34933;-63
2022/06/24 06:51:06;;;;;;;6.78;2.55;;;;;;;25.38;33.32;99448.00;4496112;31;34827;-63
2022/06/24 06:53:34;;;;;;;6.53;2.28;;;;;;;25.68;32.65;99456.47;4495258;31;33876;-65
2022/06/24 06:56:02;;;;;;;4.37;2.33;;;;;;;25.56;33.04;99450.88;4496649;31;33955;-65
2022/06/24 06:58:30;;;;;;;6.95;2.50;;;;;;;25.50;32.73;99455.31;4499943;31;33592;-63
2022/06/24 07:00:57;;;;;;;7.45;2.87;;;;;;;25.36;33.20;99452.84;4497591;31;33963;-63
2022/06/24 07:03:25;;;;;;;6.45;2.67;;;;;;;25.39;32.74;99449.69;4495996;31;35271;-65
2022/06/24 07:05:56;;;;;;;4.95;2.47;;;;;;;25.34;32.92;99447.59;4499360;31;34031;-63
2022/06/24 07:08:24;;;;;;;4.75;2.17;;;;;;;25.75;32.62;99446.34;4499441;31;32939;-66
2022/06/24 07:10:51;;;;;;;5.53;2.50;;;;;;;25.89;32.26;99458.06;4495451;31;34310;-65
2022/06/24 07:13:20;;;;;;;6.15;2.83;;;;;;;26.37;32.21;99443.78;4493259;31;34221;-62
2022/06/24 07:15:47;;;;;;;8.15;2.50;;;;;;;26.24;32.31;99453.78;4487994;31;34854;-63
2022/06/24 07:18:15;;;;;;;3.83;2.08;;;;;;;26.31;31.79;99447.41;4483203;31;32428;-65
2022/06/24 07:20:43;;;;;;;7.55;2.62;;;;;;;26.19;32.36;99442.63;4492545;31;33483;-64
2022/06/24 07:23:11;;;;;;;4.25;2.25;;;;;;;26.55;31.37;99445.72;4487072;31;32166;-64
2022/06/24 07:25:39;;;;;;;7.22;2.40;;;;;;;26.67;30.18;99450.25;4495666;31;32988;-65
2022/06/24 07:28:07;;;;;;;4.40;1.85;;;;;;;26.42;30.87;99447.53;4490748;31;33322;-66
2022/06/24 07:30:34;;;;;;;7.05;2.30;;;;;;;26.77;30.67;99444.25;4482024;31;217478;-63
2022/06/24 07:33:02;;;;;;;4.90;2.35;;;;;;;26.96;30.16;99450.59;4491280;31;34232;-65
2022/06/24 07:35:30;;;;;;;5.55;2.22;;;;;;;26.83;30.26;99442.50;4496178;31;33693;-67
2022/06/24 07:38:18;;;;;;;3.85;1.92;;;;;;;26.97;29.63;99451.41;4488926;31;32107;-63
2022/06/24 07:40:47;;;;;;;7.87;2.60;;;;;;;27.06;30.62;99441.81;4491709;31;32394;-66
2022/06/24 07:43:15;;;;;;;4.32;1.98;;;;;;;27.22;29.56;99443.97;4487367;31;32531;-65
2022/06/24 07:45:43;;;;;;;4.35;1.87;;;;;;;27.36;29.39;99444.66;4479509;31;34325;-64
2022/06/24 07:48:10;;;;;;;4.80;1.87;;;;;;;27.42;30.11;99435.50;4498312;31;33706;-63
2022/06/24 07:50:38;;;;;;;4.68;1.90;;;;;;;27.71;29.57;99435.72;4496613;31;34469;-66
2022/06/24 07:53:06;;;;;;;5.05;2.37;;;;;;;27.87;28.47;99435.09;4492856;31;33861;-65
2022/06/24 07:58:20;;;;;;;5.82;1.95;;;;;;;28.02;28.45;99429.13;4487044;31;33494;-63
2022/06/24 08:00:48;;;;;;;8.82;2.30;;;;;;;28.15;27.69;99431.66;4495958;31;33840;-67
2022/06/24 08:03:16;;;;;;;5.00;2.20;;;;;;;27.99;27.81;99426.84;4497311;31;34054;-67
2022/06/24 08:05:44;;;;;;;5.15;2.00;;;;;;;28.25;27.51;99422.81;4493678;31;33818;-67
2022/06/24 08:08:19;;;;;;;5.35;2.00;;;;;;;28.32;27.62;99429.91;4481306;31;31798;-63
2022/06/24 08:10:48;;;;;;;5.50;2.20;;;;;;;28.32;27.31;99420.81;4491825;31;33785;-63
2022/06/24 08:13:15;;;;;;;7.68;2.20;;;;;;;28.31;26.27;99427.38;4494359;31;34972;-63
2022/06/24 08:15:43;;;;;;;3.37;1.80;;;;;;;28.11;26.28;99433.22;4491198;31;33250;-63
2022/06/24 08:18:11;;;;;;;4.72;1.92;;;;;;;28.30;26.96;99431.22;4494235;31;32123;-63
2022/06/24 08:20:38;;;;;;;8.35;2.25;;;;;;;28.26;27.25;99428.09;4486639;31;32580;-65
2022/06/24 08:23:06;;;;;;;4.03;1.98;;;;;;;28.32;26.53;99426.31;4498157;31;34766;-65
2022/06/24 08:25:34;;;;;;;5.60;2.17;;;;;;;28.62;25.93;99422.63;4497014;31;33663;-65
2022/06/24 08:28:01;;;;;;;3.62;1.92;;;;;;;28.97;25.48;99417.91;4500885;31;33231;-64
2022/06/24 08:30:29;;;;;;;6.28;1.90;;;;;;;28.67;26.37;99415.34;4496480;31;34114;-68
2022/06/24 08:32:57;;;;;;;3.85;1.95;;;;;;;29.07;26.52;99410.97;4490229;31;33935;-64
2022/06/24 08:35:25;;;;;;;6.47;2.40;;;;;;;28.58;26.79;99425.03;4495114;31;34641;-63
2022/06/24 08:37:57;;;;;;;5.95;2.25;;;;;;;28.30;26.32;99423.78;4497578;31;33696;-64
2022/06/24 08:40:26;;;;;;;6.32;2.08;;;;;;;28.66;26.34;99419.13;4500701;31;34688;-64
2022/06/24 08:42:56;;;;;;;5.30;1.95;;;;;;;28.61;26.25;99419.03;4501415;31;34034;-63
2022/06/24 08:45:26;;;;;;;4.85;2.12;;;;;;;29.18;25.48;99415.59;4499932;31;33425;-66
2022/06/24 08:47:54;;;;;;;3.45;1.98;;;;;;;29.02;24.84;99408.94;4494835;31;33060;-63
2022/06/24 08:50:22;;;;;;;4.85;2.50;;;;;;;29.09;24.92;99419.84;4486171;31;33978;-63
2022/06/24 08:52:53;;;;;;;4.43;2.05;;;;;;;28.66;26.29;99424.66;4491861;31;34111;-63
2022/06/24 08:55:24;;;;;;;4.53;2.17;;;;;;;29.11;26.25;99417.66;4488872;31;33844;-62
2022/06/24 08:57:52;;;;;;;6.10;1.95;;;;;;;29.27;25.30;99414.13;4496277;31;33230;-64
2022/06/24 09:00:21;;;;;;;6.18;2.00;;;;;;;29.33;25.65;99412.31;4497537;31;34820;-63
2022/06/24 09:02:48;;;;;;;6.93;2.25;;;;;;;29.70;25.57;99413.63;4499129;31;34021;-66
2022/06/24 09:05:17;;;;;;;5.72;2.35;;;;;;;29.67;25.30;99413.28;4488302;31;34692;-63
2022/06/24 09:07:45;;;;;;;4.12;2.10;;;;;;;29.47;25.78;99409.03;4492981;31;34549;-64
2022/06/24 09:10:13;;;;;;;4.20;1.55;;;;;;;29.46;26.50;99412.88;4493768;31;33858;-64
2022/06/24 09:12:44;;;;;;;4.55;2.17;;;;;;;29.58;25.27;99403.72;4498857;31;33399;-64
2022/06/24 09:15:13;;;;;;;3.50;1.67;;;;;;;29.41;25.75;99409.19;4491467;31;32512;-63
2022/06/24 09:17:42;;;;;;;2.97;1.80;;;;;;;30.01;25.31;99405.87;4499670;31;34489;-65
2022/06/24 09:20:15;;;;;;;3.92;1.80;;;;;;;30.14;24.82;99401.94;4483364;31;32312;-66
2022/06/24 09:23:18;;;;;;;3.25;1.80;;;;;;;30.18;24.94;99400.38;4485122;31;34186;-66
2022/06/24 09:25:51;;;;;;;4.03;1.70;;;;;;;30.20;25.66;99403.75;4486307;31;32506;-62
2022/06/24 09:28:20;;;;;;;5.25;2.00;;;;;;;30.95;23.44;99404.31;4494233;31;33638;-66
2022/06/24 09:30:48;;;;;;;5.55;2.00;;;;;;;30.33;23.80;99395.12;4497885;31;34737;-64
2022/06/24 09:33:20;;;;;;;3.00;1.73;;;;;;;30.06;24.89;99405.16;4497713;31;35171;-64
2022/06/24 09:36:06;;;;;;;7.22;2.03;;;;;;;30.18;23.92;99397.63;4497196;31;33641;-66
2022/06/24 09:38:56;;;;;;;4.55;1.90;;;;;;;30.60;24.60;99399.94;4482232;31;33498;-62
2022/06/24 09:41:24;;;;;;;7.03;2.20;;;;;;;30.74;22.96;99400.41;4486460;31;32098;-65
2022/06/24 09:43:52;;;;;;;3.90;1.98;;;;;;;30.79;23.60;99397.75;4497897;31;34156;-62
2022/06/24 09:46:22;;;;;;;3.25;1.58;;;;;;;31.19;23.84;99408.50;4491939;31;34558;-64
2022/06/24 09:48:53;;;;;;;6.32;1.77;;;;;;;31.54;21.72;99405.31;4500630;31;33120;-63
2022/06/24 09:51:21;;;;;;;3.97;2.20;;;;;;;31.40;21.86;99395.78;4495900;31;33937;-63
2022/06/24 09:53:51;;;;;;;4.32;1.73;;;;;;;31.46;21.13;99397.50;4494834;31;35278;-67
2022/06/24 09:56:20;;;;;;;6.37;2.00;;;;;;;31.18;22.52;99400.47;4497303;31;32640;-67
2022/06/24 10:00:40;;;;;;;3.30;1.80;;;;;;;31.60;22.41;99403.44;4497421;31;33163;-65
2022/06/24 10:01:38;;;;;;;4.72;1.85;;;;;;;31.37;22.68;99398.22;4497888;31;33701;-67
2022/06/24 10:04:09;;;;;;;4.05;2.08;;;;;;;32.00;21.02;99393.88;4497169;31;34419;-62
2022/06/24 10:06:37;;;;;;;3.03;1.92;;;;;;;32.13;20.93;99393.44;4497749;31;33821;-62
2022/06/24 10:09:06;;;;;;;4.55;1.92;;;;;;;32.06;21.98;99389.22;4487270;31;33511;-63
2022/06/24 10:11:43;;;;;;;6.43;1.83;;;;;;;32.14;21.10;99386.81;4482911;32;34876;-67
2022/06/24 10:14:12;;;;;;;6.18;1.70;;;;;;;31.87;21.91;99389.59;4497521;31;34873;-64
2022/06/24 10:16:42;;;;;;;4.28;1.80;;;;;;;31.84;21.86;99376.28;4494199;31;32373;-63
2022/06/24 10:19:10;;;;;;;4.85;1.75;;;;;;;31.12;23.54;99373.84;4492090;31;32407;-60
2022/06/24 10:21:46;;;;;;;6.87;2.17;;;;;;;31.64;22.91;99376.09;4498737;31;35080;-63
2022/06/24 10:24:16;;;;;;;5.65;1.92;;;;;;;31.75;22.26;99373.19;4499228;31;33748;-65
2022/06/24 10:26:48;;;;;;;3.55;1.75;;;;;;;31.62;21.96;99369.97;4498553;31;32597;-66
2022/06/24 10:29:17;;;;;;;4.28;1.92;;;;;;;32.40;21.43;99362.91;4495664;31;34352;-65
2022/06/24 10:31:54;;;;;;;3.75;1.77;;;;;;;32.49;21.85;99360.50;4482416;31;32388;-61
2022/06/24 10:34:25;;;;;;;5.15;1.85;;;;;;;32.59;21.19;99355.03;4495735;31;35220;-63
2022/06/24 10:36:57;;;;;;;3.80;1.85;;;;;;;32.98;20.86;99338.03;4496949;31;33472;-62
2022/06/24 10:39:28;;;;;;;3.55;2.05;;;;;;;32.27;21.80;99343.16;4498740;31;33339;-61
2022/06/24 10:42:07;;;;;;;4.28;1.60;;;;;;;32.33;20.51;99351.25;4497582;31;33991;-65
2022/06/24 10:44:36;;;;;;;3.55;1.48;;;;;;;32.74;21.07;99343.16;4494781;31;33881;-65
2022/06/24 10:47:04;;;;;;;2.90;1.80;;;;;;;32.48;20.43;99337.50;4496973;31;34818;-64
2022/06/24 10:50:12;;;;;;;4.87;1.87;;;;;;;32.47;21.13;99341.38;4496821;31;33289;-66
2022/06/24 10:53:00;;;;;;;4.65;1.80;;;;;;;32.62;20.99;99332.31;4494463;31;33905;-61
2022/06/24 10:55:31;;;;;;;5.50;2.62;;;;;;;32.68;20.88;99335.94;4494338;31;32945;-66
2022/06/24 10:58:03;;;;;;;6.20;2.50;;;;;;;33.01;20.34;99331.13;4491722;31;33881;-63
2022/06/24 11:00:37;;;;;;;3.87;1.70;;;;;;;32.44;21.52;99336.38;4496458;31;35013;-63
2022/06/24 11:03:19;;;;;;;3.92;1.80;;;;;;;32.42;21.76;99333.00;4493112;31;35115;-65
2022/06/24 11:05:47;;;;;;;4.75;1.60;;;;;;;32.85;21.22;99324.66;4483646;31;33983;-62
2022/06/24 11:08:20;;;;;;;4.62;1.98;;;;;;;33.08;20.53;99331.69;4494726;31;34162;-63
2022/06/24 11:10:48;;;;;;;5.60;1.77;;;;;;;33.02;20.64;99321.69;4490368;31;31892;-65
2022/06/24 11:13:17;;;;;;;5.12;1.65;;;;;;;32.69;20.88;99321.00;4483654;31;34346;-64
2022/06/24 11:15:50;;;;;;;5.00;1.67;;;;;;;32.72;20.55;99314.91;4499072;31;35058;-63
2022/06/24 11:18:24;;;;;;;3.03;1.60;;;;;;;32.68;20.89;99314.63;4493315;31;34824;-62
2022/06/24 11:20:59;;;;;;;5.57;1.77;;;;;;;32.83;20.08;99305.53;4495409;31;33410;-61
2022/06/24 11:23:31;;;;;;;4.37;1.95;;;;;;;32.86;20.14;99299.44;4498630;31;34951;-61
2022/06/24 11:26:03;;;;;;;2.92;1.55;;;;;;;33.02;20.54;99296.75;4495623;31;33908;-63
2022/06/24 11:28:35;;;;;;;6.53;1.87;;;;;;;32.99;20.83;99289.81;4496446;31;32549;-61
2022/06/24 11:31:23;;;;;;;4.15;1.65;;;;;;;32.61;21.05;99291.84;4497022;31;33265;-65
2022/06/24 11:34:00;;;;;;;6.97;2.28;;;;;;;32.85;21.11;99296.94;4494935;31;33759;-63
2022/06/24 11:36:27;;;;;;;3.70;1.75;;;;;;;32.05;21.58;99293.47;4494428;31;34250;-64
2022/06/24 11:39:02;;;;;;;4.15;1.60;;;;;;;32.27;20.81;99287.78;4496080;31;33654;-60
2022/06/24 11:41:29;;;;;;;;;;;;;;;32.23;20.84;99281.94;4484504;31;31901;-63
2022/06/24 11:44:31;;;;;;;4.90;1.70;;;;;;;32.88;20.18;99282.56;4489676;31;34576;-63
2022/06/24 11:46:58;;;;;;;7.28;3.37;;;;;;;32.22;20.97;99285.81;4495283;31;35318;-63
2022/06/24 11:49:27;;;;;;;2.95;1.70;;;;;;;32.87;20.06;99278.09;4488910;31;34418;-63
2022/06/24 11:51:55;;;;;;;4.70;1.67;;;;;;;32.97;19.66;99274.56;4495942;31;33397;-60
2022/06/24 11:54:26;;;;;;;6.50;1.67;;;;;;;32.52;21.47;99287.97;4492929;31;33357;-62
2022/06/24 11:56:55;;;;;;;3.15;1.55;;;;;;;32.47;20.47;99279.63;4499156;31;34004;-62
2022/06/24 11:59:23;;;;;;;2.80;1.30;;;;;;;32.91;19.48;99268.16;4490898;31;32763;-63
2022/06/24 12:01:51;;;;;;;4.10;1.92;;;;;;;32.63;20.67;99269.44;4488001;31;31889;-62